<?xml version="1.0" encoding="UTF-8" standalone="no" ?>
<gpx xmlns="http://www.topografix.com/GPX/1/1" xmlns:xsi="http://www.w3.org/2001/XMLSchema-instance" xsi:schemaLocation="http://www.topografix.com/GPX/1/1 http://www.topografix.com/GPX/1/1/gpx.xsd" version="1.1" creator="VisuGPX - https://www.visugpx.com">
  <metadata>
    <name>Albi - chapelle du Carla</name>
    <desc><![CDATA[du centre ville d\'Albi jusqu\'à la chapelle du Carla, petite balade de 30 kms A/R.
Un cout compte-rendu ici: http://tous-a-velo-et-a-pied.over-blog.com/article-balade-a-la-chapelle-du-carla-du-17-juin-2012-107165746.html]]></desc>
  </metadata>
  <trk>
    <name><![CDATA[Track]]></name>
    <trkseg>
      <trkpt lat="43.92706" lon="2.14789">
        <ele>175</ele>
      </trkpt>
      <trkpt lat="43.9258" lon="2.14746">
        <ele>174</ele>
      </trkpt>
      <trkpt lat="43.92575" lon="2.14547">
        <ele>170.5</ele>
      </trkpt>
      <trkpt lat="43.92615" lon="2.14329">
        <ele>169</ele>
      </trkpt>
      <trkpt lat="43.92682" lon="2.14235">
        <ele>169</ele>
      </trkpt>
      <trkpt lat="43.92673" lon="2.14186">
        <ele>168.4</ele>
      </trkpt>
      <trkpt lat="43.92673" lon="2.14105">
        <ele>167.8</ele>
      </trkpt>
      <trkpt lat="43.92655" lon="2.14086">
        <ele>167.7</ele>
      </trkpt>
      <trkpt lat="43.92529" lon="2.1408">
        <ele>167.9</ele>
      </trkpt>
      <trkpt lat="43.92493" lon="2.1408">
        <ele>168.3</ele>
      </trkpt>
      <trkpt lat="43.9239" lon="2.13994">
        <ele>173</ele>
      </trkpt>
      <trkpt lat="43.92309" lon="2.13957">
        <ele>174</ele>
      </trkpt>
      <trkpt lat="43.9225" lon="2.13901">
        <ele>173.6</ele>
      </trkpt>
      <trkpt lat="43.92065" lon="2.13547">
        <ele>172.7</ele>
      </trkpt>
      <trkpt lat="43.91786" lon="2.1338">
        <ele>172.7</ele>
      </trkpt>
      <trkpt lat="43.91579" lon="2.13288">
        <ele>173.5</ele>
      </trkpt>
      <trkpt lat="43.91476" lon="2.13245">
        <ele>173</ele>
      </trkpt>
      <trkpt lat="43.91449" lon="2.13263">
        <ele>173.5</ele>
      </trkpt>
      <trkpt lat="43.91449" lon="2.13263">
        <ele>173.5</ele>
      </trkpt>
      <trkpt lat="43.91309" lon="2.13133">
        <ele>173.9</ele>
      </trkpt>
      <trkpt lat="43.91152" lon="2.13016">
        <ele>178</ele>
      </trkpt>
      <trkpt lat="43.91272" lon="2.12574">
        <ele>176.2</ele>
      </trkpt>
      <trkpt lat="43.91398" lon="2.12275">
        <ele>172.4</ele>
      </trkpt>
      <trkpt lat="43.91505" lon="2.12131">
        <ele>171</ele>
      </trkpt>
      <trkpt lat="43.91765" lon="2.11844">
        <ele>167.9</ele>
      </trkpt>
      <trkpt lat="43.91788" lon="2.11795">
        <ele>168.3</ele>
      </trkpt>
      <trkpt lat="43.9177" lon="2.11751">
        <ele>166.1</ele>
      </trkpt>
      <trkpt lat="43.9177" lon="2.11708">
        <ele>169.3</ele>
      </trkpt>
      <trkpt lat="43.91819" lon="2.11602">
        <ele>168.3</ele>
      </trkpt>
      <trkpt lat="43.91786" lon="2.11098">
        <ele>168.3</ele>
      </trkpt>
      <trkpt lat="43.91786" lon="2.11098">
        <ele>168.3</ele>
      </trkpt>
      <trkpt lat="43.91785" lon="2.11092">
        <ele>176</ele>
        <time>2012-06-16T18:25:37Z</time>
      </trkpt>
      <trkpt lat="43.91787" lon="2.11074">
        <ele>175</ele>
        <time>2012-06-16T18:25:42Z</time>
      </trkpt>
      <trkpt lat="43.9179" lon="2.1106">
        <ele>175</ele>
        <time>2012-06-16T18:25:44Z</time>
      </trkpt>
      <trkpt lat="43.91795" lon="2.11033">
        <ele>176</ele>
        <time>2012-06-16T18:25:48Z</time>
      </trkpt>
      <trkpt lat="43.91803" lon="2.10841">
        <ele>175</ele>
        <time>2012-06-16T18:26:14Z</time>
      </trkpt>
      <trkpt lat="43.91789" lon="2.10604">
        <ele>176</ele>
        <time>2012-06-16T18:26:44Z</time>
      </trkpt>
      <trkpt lat="43.91777" lon="2.10374">
        <ele>176</ele>
        <time>2012-06-16T18:27:14Z</time>
      </trkpt>
      <trkpt lat="43.91761" lon="2.10133">
        <ele>176</ele>
        <time>2012-06-16T18:27:45Z</time>
      </trkpt>
      <trkpt lat="43.9174" lon="2.099">
        <ele>174</ele>
        <time>2012-06-16T18:28:15Z</time>
      </trkpt>
      <trkpt lat="43.91724" lon="2.09823">
        <ele>174</ele>
        <time>2012-06-16T18:28:25Z</time>
      </trkpt>
      <trkpt lat="43.91716" lon="2.098">
        <ele>174</ele>
        <time>2012-06-16T18:28:29Z</time>
      </trkpt>
      <trkpt lat="43.91708" lon="2.0977">
        <ele>174</ele>
        <time>2012-06-16T18:28:32Z</time>
      </trkpt>
      <trkpt lat="43.91696" lon="2.09724">
        <ele>174</ele>
        <time>2012-06-16T18:28:38Z</time>
      </trkpt>
      <trkpt lat="43.91638" lon="2.09536">
        <ele>174</ele>
        <time>2012-06-16T18:29:04Z</time>
      </trkpt>
      <trkpt lat="43.91573" lon="2.09305">
        <ele>174</ele>
        <time>2012-06-16T18:29:35Z</time>
      </trkpt>
      <trkpt lat="43.91538" lon="2.09134">
        <ele>176</ele>
        <time>2012-06-16T18:29:58Z</time>
      </trkpt>
      <trkpt lat="43.91531" lon="2.09101">
        <ele>176</ele>
        <time>2012-06-16T18:30:03Z</time>
      </trkpt>
      <trkpt lat="43.91497" lon="2.09026">
        <ele>177</ele>
        <time>2012-06-16T18:30:16Z</time>
      </trkpt>
      <trkpt lat="43.91489" lon="2.0899">
        <ele>178</ele>
        <time>2012-06-16T18:30:22Z</time>
      </trkpt>
      <trkpt lat="43.91497" lon="2.08956">
        <ele>178</ele>
        <time>2012-06-16T18:30:29Z</time>
      </trkpt>
      <trkpt lat="43.91511" lon="2.08955">
        <ele>178</ele>
        <time>2012-06-16T18:30:31Z</time>
      </trkpt>
      <trkpt lat="43.91519" lon="2.08955">
        <ele>178</ele>
        <time>2012-06-16T18:30:34Z</time>
      </trkpt>
      <trkpt lat="43.91548" lon="2.08935">
        <ele>179</ele>
        <time>2012-06-16T18:30:39Z</time>
      </trkpt>
      <trkpt lat="43.91608" lon="2.0894">
        <ele>179</ele>
        <time>2012-06-16T18:30:51Z</time>
      </trkpt>
      <trkpt lat="43.91626" lon="2.08942">
        <ele>178</ele>
        <time>2012-06-16T18:30:55Z</time>
      </trkpt>
      <trkpt lat="43.91632" lon="2.08964">
        <ele>178</ele>
        <time>2012-06-16T18:30:57Z</time>
      </trkpt>
      <trkpt lat="43.91667" lon="2.08946">
        <ele>177</ele>
        <time>2012-06-16T18:31:04Z</time>
      </trkpt>
      <trkpt lat="43.91664" lon="2.08932">
        <ele>177</ele>
        <time>2012-06-16T18:31:06Z</time>
      </trkpt>
      <trkpt lat="43.91654" lon="2.08919">
        <ele>178</ele>
        <time>2012-06-16T18:31:09Z</time>
      </trkpt>
      <trkpt lat="43.9166" lon="2.08869">
        <ele>176</ele>
        <time>2012-06-16T18:31:15Z</time>
      </trkpt>
      <trkpt lat="43.91662" lon="2.08834">
        <ele>175</ele>
        <time>2012-06-16T18:31:18Z</time>
      </trkpt>
      <trkpt lat="43.91664" lon="2.08783">
        <ele>172</ele>
        <time>2012-06-16T18:31:23Z</time>
      </trkpt>
      <trkpt lat="43.91666" lon="2.08591">
        <ele>170</ele>
        <time>2012-06-16T18:31:42Z</time>
      </trkpt>
      <trkpt lat="43.91661" lon="2.08405">
        <ele>167</ele>
        <time>2012-06-16T18:32:02Z</time>
      </trkpt>
      <trkpt lat="43.9166" lon="2.08378">
        <ele>167</ele>
        <time>2012-06-16T18:32:05Z</time>
      </trkpt>
      <trkpt lat="43.91686" lon="2.08334">
        <ele>165</ele>
        <time>2012-06-16T18:32:11Z</time>
      </trkpt>
      <trkpt lat="43.91737" lon="2.0831">
        <ele>165</ele>
        <time>2012-06-16T18:32:19Z</time>
      </trkpt>
      <trkpt lat="43.91765" lon="2.08316">
        <ele>165</ele>
        <time>2012-06-16T18:32:24Z</time>
      </trkpt>
      <trkpt lat="43.9179" lon="2.08281">
        <ele>165</ele>
        <time>2012-06-16T18:32:31Z</time>
      </trkpt>
      <trkpt lat="43.91786" lon="2.08276">
        <ele>165</ele>
        <time>2012-06-16T18:32:32Z</time>
      </trkpt>
      <trkpt lat="43.91776" lon="2.08264">
        <ele>165</ele>
        <time>2012-06-16T18:32:35Z</time>
      </trkpt>
      <trkpt lat="43.9178" lon="2.08194">
        <ele>165</ele>
        <time>2012-06-16T18:32:42Z</time>
      </trkpt>
      <trkpt lat="43.91785" lon="2.08026">
        <ele>163</ele>
        <time>2012-06-16T18:33:01Z</time>
      </trkpt>
      <trkpt lat="43.91752" lon="2.07838">
        <ele>163</ele>
        <time>2012-06-16T18:33:23Z</time>
      </trkpt>
      <trkpt lat="43.91733" lon="2.07641">
        <ele>163</ele>
        <time>2012-06-16T18:33:47Z</time>
      </trkpt>
      <trkpt lat="43.9171" lon="2.07432">
        <ele>162</ele>
        <time>2012-06-16T18:34:13Z</time>
      </trkpt>
      <trkpt lat="43.9173" lon="2.07338">
        <ele>161</ele>
        <time>2012-06-16T18:34:25Z</time>
      </trkpt>
      <trkpt lat="43.9174" lon="2.07316">
        <ele>162</ele>
        <time>2012-06-16T18:34:28Z</time>
      </trkpt>
      <trkpt lat="43.91744" lon="2.07243">
        <ele>162</ele>
        <time>2012-06-16T18:34:37Z</time>
      </trkpt>
      <trkpt lat="43.91741" lon="2.07219">
        <ele>162</ele>
        <time>2012-06-16T18:34:40Z</time>
      </trkpt>
      <trkpt lat="43.91759" lon="2.07169">
        <ele>162</ele>
        <time>2012-06-16T18:34:48Z</time>
      </trkpt>
      <trkpt lat="43.91789" lon="2.07156">
        <ele>162</ele>
        <time>2012-06-16T18:34:54Z</time>
      </trkpt>
      <trkpt lat="43.9181" lon="2.07122">
        <ele>162</ele>
        <time>2012-06-16T18:35:01Z</time>
      </trkpt>
      <trkpt lat="43.9181" lon="2.07113">
        <ele>162</ele>
        <time>2012-06-16T18:35:02Z</time>
      </trkpt>
      <trkpt lat="43.91807" lon="2.07068">
        <ele>162</ele>
        <time>2012-06-16T18:35:09Z</time>
      </trkpt>
      <trkpt lat="43.91806" lon="2.07056">
        <ele>162</ele>
        <time>2012-06-16T18:35:11Z</time>
      </trkpt>
      <trkpt lat="43.91802" lon="2.07009">
        <ele>161</ele>
        <time>2012-06-16T18:35:17Z</time>
      </trkpt>
      <trkpt lat="43.91773" lon="2.06838">
        <ele>161</ele>
        <time>2012-06-16T18:35:39Z</time>
      </trkpt>
      <trkpt lat="43.9171" lon="2.06773">
        <ele>160</ele>
        <time>2012-06-16T18:35:52Z</time>
      </trkpt>
      <trkpt lat="43.91652" lon="2.06693">
        <ele>160</ele>
        <time>2012-06-16T18:36:07Z</time>
      </trkpt>
      <trkpt lat="43.91619" lon="2.0664">
        <ele>155</ele>
      </trkpt>
      <trkpt lat="43.9161" lon="2.06578">
        <ele>155</ele>
      </trkpt>
      <trkpt lat="43.91699" lon="2.06422">
        <ele>153.3</ele>
      </trkpt>
      <trkpt lat="43.9195" lon="2.06241">
        <ele>152.9</ele>
      </trkpt>
      <trkpt lat="43.92004" lon="2.0624">
        <ele>152.5</ele>
      </trkpt>
      <trkpt lat="43.92117" lon="2.06333">
        <ele>152.8</ele>
      </trkpt>
      <trkpt lat="43.92292" lon="2.06357">
        <ele>152</ele>
      </trkpt>
      <trkpt lat="43.92387" lon="2.06425">
        <ele>152</ele>
      </trkpt>
      <trkpt lat="43.92373" lon="2.06276">
        <ele>152</ele>
      </trkpt>
      <trkpt lat="43.92395" lon="2.06195">
        <ele>152</ele>
      </trkpt>
      <trkpt lat="43.92331" lon="2.0558">
        <ele>151</ele>
      </trkpt>
      <trkpt lat="43.92331" lon="2.05499">
        <ele>150.1</ele>
      </trkpt>
      <trkpt lat="43.92249" lon="2.05213">
        <ele>149.3</ele>
      </trkpt>
      <trkpt lat="43.92235" lon="2.0502">
        <ele>150</ele>
      </trkpt>
      <trkpt lat="43.92221" lon="2.04927">
        <ele>149.4</ele>
      </trkpt>
      <trkpt lat="43.92135" lon="2.0466">
        <ele>148.3</ele>
      </trkpt>
      <trkpt lat="43.92013" lon="2.04288">
        <ele>146.7</ele>
      </trkpt>
      <trkpt lat="43.91999" lon="2.04195">
        <ele>146</ele>
      </trkpt>
      <trkpt lat="43.91972" lon="2.04139">
        <ele>138</ele>
      </trkpt>
      <trkpt lat="43.91904" lon="2.04102">
        <ele>143.8</ele>
      </trkpt>
      <trkpt lat="43.91895" lon="2.04058">
        <ele>143.3</ele>
      </trkpt>
      <trkpt lat="43.91908" lon="2.03909">
        <ele>150.1</ele>
      </trkpt>
      <trkpt lat="43.91949" lon="2.0384">
        <ele>144.1</ele>
      </trkpt>
      <trkpt lat="43.91953" lon="2.03704">
        <ele>147.5</ele>
      </trkpt>
      <trkpt lat="43.91921" lon="2.03573">
        <ele>147.9</ele>
      </trkpt>
      <trkpt lat="43.91844" lon="2.03431">
        <ele>149.2</ele>
      </trkpt>
      <trkpt lat="43.91835" lon="2.03406">
        <ele>149.1</ele>
      </trkpt>
      <trkpt lat="43.91857" lon="2.03132">
        <ele>148.9</ele>
      </trkpt>
      <trkpt lat="43.91789" lon="2.02977">
        <ele>149</ele>
      </trkpt>
      <trkpt lat="43.92062" lon="2.02789">
        <ele>141</ele>
      </trkpt>
      <trkpt lat="43.92075" lon="2.02615">
        <ele>149.2</ele>
      </trkpt>
      <trkpt lat="43.92139" lon="2.02807">
        <ele>153.9</ele>
      </trkpt>
      <trkpt lat="43.92207" lon="2.02912">
        <ele>164.8</ele>
      </trkpt>
      <trkpt lat="43.92252" lon="2.03173">
        <ele>161.3</ele>
      </trkpt>
      <trkpt lat="43.92271" lon="2.03354">
        <ele>156.4</ele>
      </trkpt>
      <trkpt lat="43.92348" lon="2.03484">
        <ele>154.9</ele>
      </trkpt>
      <trkpt lat="43.92407" lon="2.03676">
        <ele>163</ele>
      </trkpt>
      <trkpt lat="43.92456" lon="2.03838">
        <ele>167.1</ele>
      </trkpt>
      <trkpt lat="43.92515" lon="2.03993">
        <ele>160.1</ele>
      </trkpt>
      <trkpt lat="43.92579" lon="2.04098">
        <ele>156.1</ele>
      </trkpt>
      <trkpt lat="43.92628" lon="2.04222">
        <ele>152</ele>
      </trkpt>
      <trkpt lat="43.92665" lon="2.04421">
        <ele>155</ele>
      </trkpt>
      <trkpt lat="43.92593" lon="2.04639">
        <ele>151.4</ele>
      </trkpt>
      <trkpt lat="43.92687" lon="2.04434">
        <ele>163.2</ele>
      </trkpt>
      <trkpt lat="43.92646" lon="2.04222">
        <ele>152.5</ele>
      </trkpt>
      <trkpt lat="43.92574" lon="2.04049">
        <ele>163.3</ele>
      </trkpt>
      <trkpt lat="43.92533" lon="2.03974">
        <ele>169.3</ele>
      </trkpt>
      <trkpt lat="43.92361" lon="2.03459">
        <ele>158</ele>
      </trkpt>
      <trkpt lat="43.92293" lon="2.03347">
        <ele>164.2</ele>
      </trkpt>
      <trkpt lat="43.92279" lon="2.03186">
        <ele>169.8</ele>
      </trkpt>
      <trkpt lat="43.92225" lon="2.02894">
        <ele>173.7</ele>
      </trkpt>
      <trkpt lat="43.9217" lon="2.02807">
        <ele>165</ele>
      </trkpt>
      <trkpt lat="43.92157" lon="2.0277">
        <ele>164.4</ele>
      </trkpt>
      <trkpt lat="43.9208" lon="2.02584">
        <ele>150.4</ele>
      </trkpt>
      <trkpt lat="43.92058" lon="2.02783">
        <ele>139.7</ele>
      </trkpt>
      <trkpt lat="43.91766" lon="2.02977">
        <ele>148.7</ele>
      </trkpt>
      <trkpt lat="43.91465" lon="2.02954">
        <ele>148.2</ele>
      </trkpt>
      <trkpt lat="43.91427" lon="2.037">
        <ele>150.3</ele>
      </trkpt>
      <trkpt lat="43.91427" lon="2.03849">
        <ele>151</ele>
      </trkpt>
      <trkpt lat="43.91459" lon="2.04036">
        <ele>150.8</ele>
      </trkpt>
      <trkpt lat="43.91486" lon="2.04085">
        <ele>152</ele>
      </trkpt>
      <trkpt lat="43.9141" lon="2.04341">
        <ele>152.1</ele>
      </trkpt>
      <trkpt lat="43.91524" lon="2.06311">
        <ele>156</ele>
      </trkpt>
      <trkpt lat="43.91564" lon="2.0646">
        <ele>154.9</ele>
      </trkpt>
      <trkpt lat="43.91592" lon="2.06597">
        <ele>155</ele>
      </trkpt>
      <trkpt lat="43.91605" lon="2.06659">
        <ele>155</ele>
      </trkpt>
      <trkpt lat="43.91668" lon="2.0674">
        <ele>155</ele>
      </trkpt>
      <trkpt lat="43.91759" lon="2.06839">
        <ele>155</ele>
      </trkpt>
      <trkpt lat="43.918" lon="2.07124">
        <ele>155.9</ele>
      </trkpt>
      <trkpt lat="43.91746" lon="2.07174">
        <ele>155.4</ele>
      </trkpt>
      <trkpt lat="43.91728" lon="2.07318">
        <ele>156</ele>
      </trkpt>
      <trkpt lat="43.91693" lon="2.0743">
        <ele>156</ele>
      </trkpt>
      <trkpt lat="43.91766" lon="2.08014">
        <ele>157.2</ele>
      </trkpt>
      <trkpt lat="43.91767" lon="2.08269">
        <ele>159</ele>
      </trkpt>
      <trkpt lat="43.91749" lon="2.08281">
        <ele>159</ele>
      </trkpt>
      <trkpt lat="43.91645" lon="2.0835">
        <ele>160.8</ele>
      </trkpt>
      <trkpt lat="43.9166" lon="2.08798">
        <ele>166.8</ele>
      </trkpt>
      <trkpt lat="43.91683" lon="2.08941">
        <ele>169.2</ele>
      </trkpt>
      <trkpt lat="43.91743" lon="2.09631">
        <ele>167</ele>
      </trkpt>
      <trkpt lat="43.9177" lon="2.09861">
        <ele>167.3</ele>
      </trkpt>
      <trkpt lat="43.91868" lon="2.11676">
        <ele>169.9</ele>
      </trkpt>
      <trkpt lat="43.91824" lon="2.11782">
        <ele>170.9</ele>
      </trkpt>
      <trkpt lat="43.91842" lon="2.11825">
        <ele>169.7</ele>
      </trkpt>
      <trkpt lat="43.91842" lon="2.11869">
        <ele>169.5</ele>
      </trkpt>
      <trkpt lat="43.91808" lon="2.11885">
        <ele>168.4</ele>
      </trkpt>
      <trkpt lat="43.91772" lon="2.11854">
        <ele>169.7</ele>
      </trkpt>
      <trkpt lat="43.91425" lon="2.12259">
        <ele>171.2</ele>
      </trkpt>
      <trkpt lat="43.91286" lon="2.12577">
        <ele>176.5</ele>
      </trkpt>
      <trkpt lat="43.91152" lon="2.13047">
        <ele>179.1</ele>
      </trkpt>
      <trkpt lat="43.91107" lon="2.13243">
        <ele>182</ele>
      </trkpt>
      <trkpt lat="43.91092" lon="2.13423">
        <ele>179.3</ele>
      </trkpt>
      <trkpt lat="43.91099" lon="2.1346">
        <ele>178</ele>
      </trkpt>
      <trkpt lat="43.91128" lon="2.13442">
        <ele>177.3</ele>
      </trkpt>
      <trkpt lat="43.9118" lon="2.13457">
        <ele>175</ele>
      </trkpt>
      <trkpt lat="43.91238" lon="2.13479">
        <ele>174</ele>
      </trkpt>
      <trkpt lat="43.91301" lon="2.13519">
        <ele>174</ele>
      </trkpt>
      <trkpt lat="43.91371" lon="2.13534">
        <ele>175</ele>
      </trkpt>
      <trkpt lat="43.91467" lon="2.13571">
        <ele>175</ele>
      </trkpt>
      <trkpt lat="43.91551" lon="2.13642">
        <ele>175</ele>
      </trkpt>
      <trkpt lat="43.91718" lon="2.13878">
        <ele>175</ele>
      </trkpt>
      <trkpt lat="43.91751" lon="2.13881">
        <ele>174.7</ele>
      </trkpt>
      <trkpt lat="43.9181" lon="2.13899">
        <ele>174</ele>
      </trkpt>
      <trkpt lat="43.91927" lon="2.13955">
        <ele>174</ele>
      </trkpt>
      <trkpt lat="43.91965" lon="2.13946">
        <ele>174</ele>
      </trkpt>
      <trkpt lat="43.9199" lon="2.13973">
        <ele>174</ele>
      </trkpt>
      <trkpt lat="43.92013" lon="2.14303">
        <ele>174</ele>
      </trkpt>
      <trkpt lat="43.92031" lon="2.14455">
        <ele>174</ele>
      </trkpt>
      <trkpt lat="43.92065" lon="2.14542">
        <ele>173.3</ele>
      </trkpt>
      <trkpt lat="43.92135" lon="2.14635">
        <ele>173</ele>
      </trkpt>
      <trkpt lat="43.92297" lon="2.14725">
        <ele>173</ele>
      </trkpt>
      <trkpt lat="43.92445" lon="2.14796">
        <ele>172.4</ele>
      </trkpt>
      <trkpt lat="43.92461" lon="2.1487">
        <ele>171.3</ele>
      </trkpt>
      <trkpt lat="43.92535" lon="2.14858">
        <ele>174</ele>
      </trkpt>
      <trkpt lat="43.92713" lon="2.14817">
        <ele>175</ele>
      </trkpt>
      <trkpt lat="43.92713" lon="2.14817">
        <ele>175</ele>
      </trkpt>
    </trkseg>
  </trk>
</gpx>